Terminal Aerodrome Forecast
Issued by NWS

Home | Current Version | Previous Version | Text Only | Print | Product List | Glossary On
Versions: 1 2 3 4 5 6 7 8 9 10 11 12
000
FTUS43 KIWX 281120
TAFSBN
TAF
KSBN 281120Z 2812/2912 10004KT P6SM SCT250
     FM282100 02006KT P6SM VCTS BKN040CB
     FM290200 08004KT P6SM VCSH SCT040 BKN100=

USA.gov is the U.S. government's official web portal to all federal, state and local government web resources and services.